createdAt,value
2023-05-09T00:01:20.940Z,98.68
2023-05-09T00:03:47.806Z,98.50
2023-05-09T00:06:15.427Z,98.68
2023-05-09T00:08:42.108Z,100.68
2023-05-09T00:11:09.041Z,101.88
2023-05-09T00:13:35.798Z,98.60
2023-05-09T00:16:03.485Z,99.97
2023-05-09T00:18:31.099Z,100.35
2023-05-09T00:20:57.858Z,98.78
2023-05-09T00:23:24.511Z,100.15
2023-05-09T00:25:51.207Z,99.22
2023-05-09T00:28:17.919Z,97.15
2023-05-09T00:30:45.654Z,99.55
2023-05-09T00:33:12.356Z,100.70
2023-05-09T00:35:39.354Z,101.60
2023-05-09T00:38:06.106Z,98.65
2023-05-09T00:40:32.760Z,99.45
2023-05-09T00:43:00.057Z,104.15
2023-05-09T00:45:26.904Z,98.68
2023-05-09T00:47:53.800Z,102.30
2023-05-09T00:50:20.881Z,101.05
2023-05-09T00:52:47.552Z,98.90
2023-05-09T00:55:16.241Z,98.97
2023-05-09T00:57:43.138Z,100.13
2023-05-09T01:00:13.252Z,97.70
2023-05-09T01:02:46.531Z,99.00
2023-05-09T01:05:13.975Z,99.07
2023-05-09T01:08:19.208Z,98.40
2023-05-09T01:11:03.963Z,99.15
2023-05-09T01:13:34.888Z,99.47
2023-05-09T01:16:12.861Z,101.45
2023-05-09T01:18:54.395Z,101.60
2023-05-09T01:21:26.884Z,100.00
2023-05-09T01:24:16.548Z,98.68
2023-05-09T01:26:52.243Z,98.80
2023-05-09T01:29:40.754Z,102.20
2023-05-09T01:32:19.122Z,98.80
2023-05-09T01:34:47.684Z,100.40
2023-05-09T01:37:16.291Z,102.88
2023-05-09T01:39:49.138Z,101.32
2023-05-09T01:42:18.680Z,99.72
2023-05-09T01:44:47.269Z,104.93
2023-05-09T01:47:16.590Z,101.43
2023-05-09T01:49:44.452Z,99.60
2023-05-09T01:52:16.198Z,100.60
2023-05-09T01:54:44.497Z,99.50
2023-05-09T01:57:12.047Z,99.68
2023-05-09T01:59:42.124Z,103.43
2023-05-09T02:02:09.300Z,98.55
2023-05-09T02:04:36.382Z,99.15
2023-05-09T02:07:05.823Z,100.47
2023-05-09T02:09:32.569Z,105.32
2023-05-09T02:11:59.348Z,98.80
2023-05-09T02:14:26.184Z,101.35
2023-05-09T02:16:52.870Z,101.82
2023-05-09T02:19:19.503Z,101.63
2023-05-09T02:21:46.129Z,98.97
2023-05-09T02:24:12.924Z,100.95
2023-05-09T02:26:40.949Z,104.65
2023-05-09T02:29:08.515Z,101.90
2023-05-09T02:31:35.963Z,102.43
2023-05-09T02:34:04.778Z,100.05
2023-05-09T02:36:32.596Z,108.93
2023-05-09T02:39:00.010Z,100.75
2023-05-09T02:41:28.368Z,99.53
2023-05-09T02:43:55.060Z,101.78
2023-05-09T02:46:21.965Z,99.95
2023-05-09T02:48:49.227Z,98.68
2023-05-09T02:51:15.944Z,100.20
2023-05-09T02:53:42.572Z,100.47
2023-05-09T02:56:10.833Z,103.47
2023-05-09T02:58:38.425Z,100.28
2023-05-09T03:01:05.294Z,100.40
2023-05-09T03:03:34.112Z,102.38
2023-05-09T03:06:01.486Z,100.20
2023-05-09T03:08:28.133Z,101.50
2023-05-09T03:10:54.801Z,101.68
2023-05-09T03:13:21.623Z,100.13
2023-05-09T03:15:48.390Z,100.78
2023-05-09T03:18:15.066Z,100.82
2023-05-09T03:20:41.671Z,100.90
2023-05-09T03:23:08.423Z,100.97
2023-05-09T03:25:35.080Z,100.45
2023-05-09T03:28:01.794Z,103.63
2023-05-09T03:30:28.424Z,100.43
2023-05-09T03:32:55.265Z,100.68
2023-05-09T03:35:22.069Z,100.80
2023-05-09T03:37:48.767Z,103.35
2023-05-09T03:40:15.515Z,100.90
2023-05-09T03:42:42.146Z,99.80
2023-05-09T03:45:09.331Z,106.35
2023-05-09T03:47:36.386Z,100.85
2023-05-09T03:50:04.148Z,102.15
2023-05-09T03:52:30.946Z,103.03
2023-05-09T03:54:57.564Z,103.25
2023-05-09T03:57:24.217Z,102.38
2023-05-09T03:59:51.308Z,102.43
2023-05-09T04:02:18.085Z,103.75
2023-05-09T04:04:46.072Z,100.15
2023-05-09T04:07:12.819Z,102.00
2023-05-09T04:09:41.156Z,104.32
2023-05-09T04:12:07.816Z,104.50
2023-05-09T04:14:34.519Z,104.82
2023-05-09T04:17:01.253Z,106.13
2023-05-09T04:19:27.947Z,101.38
2023-05-09T04:21:54.543Z,102.75
2023-05-09T04:24:21.173Z,105.95
2023-05-09T04:26:47.980Z,106.82
2023-05-09T04:29:14.638Z,103.50
2023-05-09T04:31:41.417Z,104.82
2023-05-09T04:34:08.093Z,103.90
2023-05-09T04:36:34.728Z,103.25
2023-05-09T04:39:01.444Z,104.38
2023-05-09T04:41:28.677Z,104.97
2023-05-09T04:43:55.775Z,108.10
2023-05-09T04:46:24.970Z,102.03
2023-05-09T04:48:52.323Z,102.22
2023-05-09T04:51:19.082Z,101.50
2023-05-09T04:53:45.910Z,104.53
2023-05-09T04:56:12.580Z,102.15
2023-05-09T04:58:39.450Z,104.38
2023-05-09T05:01:06.553Z,101.68
2023-05-09T05:03:33.506Z,102.90
2023-05-09T05:06:00.186Z,101.95
2023-05-09T05:08:26.790Z,99.82
2023-05-09T05:10:53.426Z,101.65
2023-05-09T05:13:21.433Z,103.13
2023-05-09T05:15:48.290Z,99.70
2023-05-09T05:18:15.068Z,105.53
2023-05-09T05:20:42.247Z,106.55
2023-05-09T05:23:09.500Z,102.80
2023-05-09T05:25:36.411Z,115.70
2023-05-09T05:28:03.149Z,114.47
2023-05-09T05:30:32.119Z,110.75
2023-05-09T05:33:00.276Z,110.97
2023-05-09T05:35:28.246Z,112.88
2023-05-09T05:37:54.867Z,110.70
2023-05-09T05:40:21.502Z,108.63
2023-05-09T05:42:48.121Z,110.82
2023-05-09T05:45:15.085Z,106.88
2023-05-09T05:47:41.965Z,105.45
2023-05-09T05:50:11.810Z,107.32
2023-05-09T05:52:39.704Z,105.43
2023-05-09T05:55:06.678Z,106.18
2023-05-09T05:57:34.540Z,107.93
2023-05-09T06:00:01.764Z,104.50
2023-05-09T06:02:28.544Z,109.43
2023-05-09T06:04:56.159Z,106.38
2023-05-09T06:07:22.957Z,108.55
2023-05-09T06:09:49.624Z,121.35
2023-05-09T06:12:17.068Z,107.32
2023-05-09T06:14:43.885Z,110.35
2023-05-09T06:17:10.949Z,113.95
2023-05-09T06:19:37.706Z,107.53
2023-05-09T06:22:04.448Z,119.13
2023-05-09T06:24:35.900Z,110.70
2023-05-09T06:27:03.819Z,104.72
2023-05-09T06:29:30.455Z,104.57
2023-05-09T06:31:57.120Z,105.13
2023-05-09T06:34:23.762Z,103.47
2023-05-09T06:36:50.465Z,104.80
2023-05-09T06:39:17.160Z,103.57
2023-05-09T06:41:43.804Z,102.80
2023-05-09T06:44:10.426Z,103.43
2023-05-09T06:46:37.107Z,104.22
2023-05-09T06:49:03.762Z,105.53
2023-05-09T06:51:31.233Z,106.75
2023-05-09T06:53:58.218Z,105.45
2023-05-09T06:56:25.877Z,103.88
2023-05-09T06:58:52.701Z,105.32
2023-05-09T07:01:19.370Z,105.45
2023-05-09T07:03:47.473Z,105.25
2023-05-09T07:06:14.148Z,112.43
2023-05-09T07:08:40.909Z,104.75
2023-05-09T07:11:07.715Z,106.43
2023-05-09T07:13:34.417Z,106.00
2023-05-09T07:16:01.089Z,108.00
2023-05-09T07:18:27.792Z,105.65
2023-05-09T07:20:54.451Z,105.82
2023-05-09T07:23:21.158Z,108.00
2023-05-09T07:25:47.907Z,105.05
2023-05-09T07:28:14.558Z,107.25
2023-05-09T07:30:41.619Z,105.13
2023-05-09T07:33:08.290Z,113.82
2023-05-09T07:35:35.062Z,105.28
2023-05-09T07:38:01.854Z,110.03
2023-05-09T07:40:28.505Z,110.80
2023-05-09T07:42:56.722Z,115.28
2023-05-09T07:45:24.009Z,110.15
2023-05-09T07:47:50.898Z,109.43
2023-05-09T07:50:18.010Z,113.07
2023-05-09T07:52:44.841Z,110.60
2023-05-09T07:55:12.382Z,115.70
2023-05-09T07:57:39.972Z,116.05
2023-05-09T08:00:08.716Z,112.13
2023-05-09T08:02:35.578Z,118.97
2023-05-09T08:05:02.347Z,113.68
2023-05-09T08:07:29.017Z,114.05
2023-05-09T08:09:55.655Z,112.88
2023-05-09T08:12:22.310Z,117.28
2023-05-09T08:14:48.932Z,114.30
2023-05-09T08:17:16.253Z,117.07
2023-05-09T08:19:42.874Z,111.57
2023-05-09T08:22:09.545Z,117.32
2023-05-09T08:24:36.352Z,115.45
2023-05-09T08:27:03.030Z,113.13
2023-05-09T08:29:29.857Z,118.63
2023-05-09T08:31:56.551Z,112.63
2023-05-09T08:34:23.215Z,115.15
2023-05-09T08:36:49.856Z,119.05
2023-05-09T08:39:16.512Z,115.63
2023-05-09T08:41:43.595Z,116.32
2023-05-09T08:44:10.906Z,114.88
2023-05-09T08:46:42.837Z,120.10
2023-05-09T08:49:09.810Z,113.70
2023-05-09T08:51:37.060Z,116.50
2023-05-09T08:54:05.039Z,116.88
2023-05-09T08:56:32.123Z,115.60
2023-05-09T08:58:59.054Z,118.55
2023-05-09T09:01:26.871Z,124.75
2023-05-09T09:03:53.996Z,112.50
2023-05-09T09:06:21.954Z,113.10
2023-05-09T09:08:49.156Z,119.05
2023-05-09T09:11:17.114Z,114.50
2023-05-09T09:13:45.296Z,114.30
2023-05-09T09:16:21.051Z,118.00
2023-05-09T09:18:48.333Z,112.60
2023-05-09T09:21:19.291Z,112.72
2023-05-09T09:23:47.565Z,114.78
2023-05-09T09:26:15.077Z,116.25
2023-05-09T09:28:42.874Z,110.10
2023-05-09T09:31:23.413Z,112.65
2023-05-09T09:33:51.168Z,112.28
2023-05-09T09:36:30.652Z,111.70
2023-05-09T09:39:00.517Z,111.78
2023-05-09T09:41:34.707Z,108.25
2023-05-09T09:44:21.231Z,121.10
2023-05-09T09:46:50.635Z,109.72
2023-05-09T09:49:22.236Z,104.65
2023-05-09T09:51:53.445Z,109.35
2023-05-09T09:54:20.377Z,107.82
2023-05-09T09:56:54.801Z,109.45
2023-05-09T09:59:24.903Z,107.70
2023-05-09T10:02:07.081Z,110.65
2023-05-09T10:04:36.643Z,112.10
2023-05-09T10:07:05.903Z,107.30
2023-05-09T10:09:33.945Z,106.53
2023-05-09T10:12:04.334Z,112.22
2023-05-09T10:14:34.313Z,108.57
2023-05-09T10:17:03.744Z,109.57
2023-05-09T10:19:31.877Z,109.28
2023-05-09T10:22:09.506Z,109.63
2023-05-09T10:24:44.950Z,110.07
2023-05-09T10:27:12.902Z,110.55
2023-05-09T10:29:49.813Z,107.32
2023-05-09T10:32:23.435Z,110.45
2023-05-09T10:34:53.150Z,116.75
2023-05-09T10:37:22.167Z,109.07
2023-05-09T10:39:53.149Z,110.50
2023-05-09T10:42:20.393Z,112.63
2023-05-09T10:44:47.922Z,108.47
2023-05-09T10:47:15.436Z,103.55
2023-05-09T10:49:43.648Z,105.90
2023-05-09T10:52:10.494Z,106.05
2023-05-09T10:54:37.421Z,110.85
2023-05-09T10:57:08.802Z,105.93
2023-05-09T10:59:42.795Z,104.38
2023-05-09T11:02:14.176Z,107.65
2023-05-09T11:04:41.401Z,118.07
2023-05-09T11:07:24.438Z,116.10
2023-05-09T11:09:52.776Z,117.30
2023-05-09T11:12:21.233Z,119.60
2023-05-09T11:14:51.733Z,111.82
2023-05-09T11:17:21.688Z,109.30
2023-05-09T11:19:48.994Z,108.07
2023-05-09T11:22:17.767Z,111.65
2023-05-09T11:24:52.023Z,110.82
2023-05-09T11:27:23.871Z,106.38
2023-05-09T11:29:58.754Z,107.15
2023-05-09T11:32:31.880Z,107.28
2023-05-09T11:35:09.527Z,107.53
2023-05-09T11:37:55.043Z,107.95
2023-05-09T11:40:22.684Z,109.38
2023-05-09T11:42:58.002Z,106.00
2023-05-09T11:45:30.821Z,104.75
2023-05-09T11:47:57.785Z,102.07
2023-05-09T11:50:24.934Z,107.40
2023-05-09T11:52:51.929Z,104.90
2023-05-09T11:55:22.053Z,104.25
2023-05-09T11:57:53.072Z,101.67
2023-05-09T12:00:21.617Z,106.67
2023-05-09T12:02:49.127Z,104.70
2023-05-09T12:05:18.607Z,99.43
2023-05-09T12:07:46.234Z,100.40
2023-05-09T12:10:19.550Z,100.83
2023-05-09T12:12:48.424Z,101.17
2023-05-09T12:15:15.763Z,100.67
2023-05-09T12:17:47.299Z,96.20
2023-05-09T12:20:15.798Z,95.77
2023-05-09T12:22:43.951Z,95.73
2023-05-09T12:25:12.013Z,92.10
2023-05-09T12:27:40.673Z,92.03
2023-05-09T12:30:13.876Z,92.70
2023-05-09T12:32:41.822Z,96.40
2023-05-09T12:35:10.238Z,93.57
2023-05-09T12:37:37.003Z,93.10
2023-05-09T12:40:11.220Z,90.53
2023-05-09T12:42:38.472Z,88.47
2023-05-09T12:45:08.419Z,89.07
2023-05-09T12:47:35.457Z,91.47
2023-05-09T12:50:04.180Z,89.80
2023-05-09T12:52:36.810Z,92.47
2023-05-09T12:55:10.242Z,91.07
2023-05-09T12:57:38.004Z,90.55
2023-05-09T13:00:07.168Z,89.35
2023-05-09T13:02:39.826Z,88.50
2023-05-09T13:05:16.007Z,90.33
2023-05-09T13:07:47.762Z,90.40
2023-05-09T13:10:26.121Z,87.70
2023-05-09T13:12:53.388Z,87.10
2023-05-09T13:15:21.619Z,88.73
2023-05-09T13:17:50.093Z,93.82
2023-05-09T13:20:17.587Z,91.88
2023-05-09T13:22:45.628Z,90.70
2023-05-09T13:25:12.970Z,89.60
2023-05-09T13:27:39.668Z,90.50
2023-05-09T13:30:09.489Z,90.55
2023-05-09T13:32:38.946Z,91.60
2023-05-09T13:35:07.959Z,93.45
2023-05-09T13:37:35.435Z,90.50
2023-05-09T13:40:03.002Z,89.70
2023-05-09T13:42:29.611Z,89.45
2023-05-09T13:44:56.231Z,88.60
2023-05-09T13:47:23.018Z,89.40
2023-05-09T13:49:49.678Z,91.50
2023-05-09T13:52:16.397Z,92.47
2023-05-09T13:54:43.098Z,93.27
2023-05-09T13:57:10.091Z,90.03
2023-05-09T13:59:36.853Z,90.77
2023-05-09T14:02:03.779Z,88.70
2023-05-09T14:04:34.331Z,90.13
2023-05-09T14:07:01.344Z,90.75
2023-05-09T14:09:29.452Z,91.88
2023-05-09T14:11:56.952Z,91.15
2023-05-09T14:14:25.830Z,88.40
2023-05-09T14:16:53.922Z,89.10
2023-05-09T14:19:20.605Z,90.32
2023-05-09T14:21:47.323Z,91.67
2023-05-09T14:24:16.292Z,89.28
2023-05-09T14:26:43.705Z,88.37
2023-05-09T14:29:10.615Z,91.23
2023-05-09T14:31:37.563Z,91.43
2023-05-09T14:34:05.286Z,92.75
2023-05-09T14:36:32.459Z,91.00
2023-05-09T14:38:59.098Z,90.10
2023-05-09T14:41:25.949Z,90.97
2023-05-09T14:43:54.130Z,89.07
2023-05-09T14:46:20.906Z,89.50
2023-05-09T14:48:47.637Z,90.07
2023-05-09T14:51:14.355Z,91.30
2023-05-09T14:53:41.884Z,92.10
2023-05-09T14:56:10.396Z,91.10
2023-05-09T14:58:37.617Z,93.40
2023-05-09T15:01:04.547Z,92.50
2023-05-09T15:03:31.617Z,91.90
2023-05-09T15:05:59.104Z,91.15
2023-05-09T15:08:26.291Z,93.50
2023-05-09T15:10:53.170Z,91.20
2023-05-09T15:13:19.886Z,91.30
2023-05-09T15:15:47.138Z,90.60
2023-05-09T15:18:16.374Z,91.05
2023-05-09T15:20:43.267Z,94.00
2023-05-09T15:23:10.736Z,90.57
2023-05-09T15:25:37.663Z,92.28
2023-05-09T15:28:04.558Z,93.95
2023-05-09T15:30:31.232Z,94.27
2023-05-09T15:32:59.149Z,91.87
2023-05-09T15:35:25.919Z,92.32
2023-05-09T15:37:52.619Z,93.40
2023-05-09T15:40:19.284Z,94.20
2023-05-09T15:42:48.173Z,92.97
2023-05-09T15:45:15.702Z,92.28
2023-05-09T15:47:42.328Z,91.72
2023-05-09T15:50:09.287Z,91.88
2023-05-09T15:52:35.942Z,93.70
2023-05-09T15:55:02.898Z,94.13
2023-05-09T15:57:29.536Z,94.05
2023-05-09T15:59:56.203Z,96.07
2023-05-09T16:02:23.858Z,91.97
2023-05-09T16:04:50.816Z,93.67
2023-05-09T16:07:19.454Z,93.65
2023-05-09T16:09:46.619Z,94.90
2023-05-09T16:12:13.746Z,99.10
2023-05-09T16:14:40.422Z,94.05
2023-05-09T16:17:07.105Z,91.82
2023-05-09T16:19:36.354Z,94.95
2023-05-09T16:22:03.108Z,95.63
2023-05-09T16:24:31.645Z,92.35
2023-05-09T16:26:58.389Z,96.65
2023-05-09T16:29:25.024Z,96.10
2023-05-09T16:31:51.740Z,98.45
2023-05-09T16:34:18.392Z,95.50
2023-05-09T16:36:46.368Z,93.68
2023-05-09T16:39:13.202Z,94.05
2023-05-09T16:41:39.822Z,94.05
2023-05-09T16:44:06.459Z,96.82
2023-05-09T16:46:33.091Z,94.00
2023-05-09T16:48:59.720Z,96.57
2023-05-09T16:51:26.361Z,94.28
2023-05-09T16:53:53.034Z,97.88
2023-05-09T16:56:19.689Z,99.70
2023-05-09T16:58:46.355Z,95.53
2023-05-09T17:01:13.253Z,95.80
2023-05-09T17:03:39.934Z,98.05
2023-05-09T17:06:06.970Z,96.35
2023-05-09T17:08:33.617Z,96.00
2023-05-09T17:11:00.494Z,97.70
2023-05-09T17:13:28.046Z,96.20
2023-05-09T17:15:54.875Z,95.32
2023-05-09T17:18:33.224Z,95.03
2023-05-09T17:21:03.231Z,95.97
2023-05-09T17:23:29.864Z,94.68
2023-05-09T17:25:56.545Z,94.97
2023-05-09T17:28:23.174Z,96.60
2023-05-09T17:30:49.828Z,96.68
2023-05-09T17:33:16.453Z,95.50
2023-05-09T17:35:43.092Z,101.53
2023-05-09T17:38:09.736Z,96.57
2023-05-09T17:40:36.638Z,99.15
2023-05-09T17:43:03.319Z,104.32
2023-05-09T17:45:30.074Z,103.97
2023-05-09T17:47:56.862Z,99.28
2023-05-09T17:50:23.574Z,97.93
2023-05-09T17:52:50.330Z,94.57
2023-05-09T17:55:17.012Z,94.65
2023-05-09T17:57:43.808Z,93.07
2023-05-09T18:00:11.495Z,93.18
2023-05-09T18:02:38.788Z,92.22
2023-05-09T18:05:07.754Z,92.53
2023-05-09T18:07:34.483Z,92.43
2023-05-09T18:10:01.134Z,93.10
2023-05-09T18:12:29.005Z,92.70
2023-05-09T18:14:55.702Z,94.70
2023-05-09T18:17:22.438Z,90.50
2023-05-09T18:19:49.038Z,97.03
2023-05-09T18:22:18.609Z,92.00
2023-05-09T18:24:45.761Z,90.43
2023-05-09T18:27:12.388Z,89.90
2023-05-09T18:29:39.003Z,89.82
2023-05-09T18:32:06.826Z,89.45
2023-05-09T18:34:33.753Z,89.03
2023-05-09T18:37:00.429Z,89.15
2023-05-09T18:39:27.280Z,90.25
2023-05-09T18:41:54.267Z,89.30
2023-05-09T18:44:20.919Z,90.95
2023-05-09T18:46:47.603Z,90.88
2023-05-09T18:49:14.524Z,92.63
2023-05-09T18:51:41.280Z,89.85
2023-05-09T18:54:08.143Z,88.97
2023-05-09T18:56:39.196Z,91.40
2023-05-09T18:59:07.475Z,91.57
2023-05-09T19:01:34.229Z,90.10
2023-05-09T19:04:01.840Z,88.90
2023-05-09T19:06:29.088Z,90.38
2023-05-09T19:08:55.777Z,90.22
2023-05-09T19:11:22.422Z,91.43
2023-05-09T19:13:49.247Z,89.90
2023-05-09T19:16:18.642Z,93.63
2023-05-09T19:18:45.572Z,92.07
2023-05-09T19:21:13.398Z,90.80
2023-05-09T19:23:40.128Z,91.40
2023-05-09T19:26:06.883Z,94.50
2023-05-09T19:28:34.868Z,96.32
2023-05-09T19:31:02.201Z,94.60
2023-05-09T19:33:28.968Z,101.10
2023-05-09T19:35:55.600Z,92.72
2023-05-09T19:38:22.438Z,95.18
2023-05-09T19:40:49.068Z,94.20
2023-05-09T19:43:15.802Z,96.70
2023-05-09T19:45:42.641Z,91.53
2023-05-09T19:48:15.079Z,92.80
2023-05-09T19:50:42.954Z,92.60
2023-05-09T19:53:09.681Z,90.68
2023-05-09T19:55:36.680Z,93.45
2023-05-09T19:58:04.045Z,94.05
2023-05-09T20:00:31.675Z,94.07
2023-05-09T20:02:58.354Z,94.60
2023-05-09T20:05:25.170Z,95.43
2023-05-09T20:07:51.969Z,93.88
2023-05-09T20:10:18.667Z,96.18
2023-05-09T20:12:45.616Z,95.57
2023-05-09T20:15:12.284Z,94.28
2023-05-09T20:17:38.947Z,93.50
2023-05-09T20:20:06.258Z,93.03
2023-05-09T20:22:32.971Z,98.22
2023-05-09T20:24:59.606Z,91.85
2023-05-09T20:27:26.458Z,89.10
2023-05-09T20:29:53.190Z,90.88
2023-05-09T20:32:19.920Z,90.88
2023-05-09T20:34:46.542Z,91.32
2023-05-09T20:37:13.391Z,93.70
2023-05-09T20:39:40.056Z,90.15
2023-05-09T20:42:07.083Z,88.78
2023-05-09T20:44:33.853Z,93.03
2023-05-09T20:47:00.552Z,90.80
2023-05-09T20:49:27.226Z,89.88
2023-05-09T20:51:55.166Z,90.75
2023-05-09T20:54:23.887Z,91.32
2023-05-09T20:56:50.713Z,91.13
2023-05-09T20:59:17.903Z,91.05
2023-05-09T21:01:44.579Z,89.90
2023-05-09T21:04:11.278Z,94.85
2023-05-09T21:06:37.946Z,91.03
2023-05-09T21:09:09.176Z,91.30
2023-05-09T21:11:37.169Z,91.30
2023-05-09T21:14:03.969Z,91.63
2023-05-09T21:16:30.738Z,92.22
2023-05-09T21:18:59.393Z,91.78
2023-05-09T21:21:25.992Z,92.22
2023-05-09T21:23:52.637Z,91.43
2023-05-09T21:26:19.324Z,95.60
2023-05-09T21:28:45.953Z,93.75
2023-05-09T21:31:12.623Z,91.30
2023-05-09T21:33:39.483Z,92.85
2023-05-09T21:36:07.637Z,92.93
2023-05-09T21:38:34.365Z,92.78
2023-05-09T21:41:01.080Z,93.35
2023-05-09T21:43:28.588Z,95.03
2023-05-09T21:45:55.953Z,92.45
2023-05-09T21:48:22.687Z,92.85
2023-05-09T21:50:49.371Z,91.70
2023-05-09T21:53:15.995Z,93.72
2023-05-09T21:55:42.598Z,92.93
2023-05-09T21:58:09.202Z,95.78
2023-05-09T22:00:35.850Z,93.03
2023-05-09T22:03:02.581Z,95.50
2023-05-09T22:05:29.347Z,94.20
2023-05-09T22:07:55.957Z,94.15
2023-05-09T22:10:22.697Z,95.45
2023-05-09T22:12:49.382Z,99.18
2023-05-09T22:15:16.002Z,93.88
2023-05-09T22:17:42.726Z,94.35
2023-05-09T22:20:10.143Z,95.00
2023-05-09T22:22:36.741Z,95.63
2023-05-09T22:25:04.560Z,96.50
2023-05-09T22:27:31.190Z,94.45
2023-05-09T22:29:57.890Z,95.07
2023-05-09T22:32:24.522Z,95.78
2023-05-09T22:34:51.195Z,95.05
2023-05-09T22:37:17.833Z,94.88
2023-05-09T22:39:44.466Z,94.10
2023-05-09T22:42:11.340Z,95.97
2023-05-09T22:44:38.989Z,94.05
2023-05-09T22:47:07.708Z,93.00
2023-05-09T22:49:35.426Z,92.47
2023-05-09T22:52:02.275Z,90.32
2023-05-09T22:54:28.953Z,88.68
2023-05-09T22:56:55.701Z,88.68
2023-05-09T22:59:22.667Z,89.15
2023-05-09T23:01:49.345Z,87.38
2023-05-09T23:04:15.981Z,87.78
2023-05-09T23:06:42.615Z,87.32
2023-05-09T23:09:09.505Z,88.22
2023-05-09T23:11:36.446Z,88.53
2023-05-09T23:14:03.571Z,87.28
2023-05-09T23:16:30.245Z,88.47
2023-05-09T23:18:56.872Z,88.43
2023-05-09T23:21:23.507Z,87.38
2023-05-09T23:23:50.108Z,88.10
2023-05-09T23:26:16.748Z,87.50
2023-05-09T23:28:43.349Z,87.97
2023-05-09T23:31:10.633Z,87.97
2023-05-09T23:33:37.276Z,89.45
2023-05-09T23:36:04.341Z,87.78
2023-05-09T23:38:30.952Z,89.30
2023-05-09T23:40:58.408Z,87.43
2023-05-09T23:43:25.047Z,87.35
2023-05-09T23:45:51.774Z,87.63
2023-05-09T23:48:18.375Z,88.55
2023-05-09T23:50:45.033Z,87.38
2023-05-09T23:53:11.974Z,111.43
2023-05-09T23:55:38.642Z,87.63
2023-05-09T23:58:05.296Z,88.75
